sensor_id;sensor_type;location;lat;lon;timestamp;pressure;altitude;pressure_sealevel;temperature
34310;BMP280;61664;48.112;11.662;2024-01-07T00:00:35;94610.03;;;5.21
34310;BMP280;61664;48.112;11.662;2024-01-07T00:03:02;94618.16;;;5.26
34310;BMP280;61664;48.112;11.662;2024-01-07T00:05:29;94626.53;;;5.34
34310;BMP280;61664;48.112;11.662;2024-01-07T00:07:59;94604.44;;;5.28
34310;BMP280;61664;48.112;11.662;2024-01-07T00:10:26;94613.16;;;5.37
34310;BMP280;61664;48.112;11.662;2024-01-07T00:12:53;94613.91;;;5.38
34310;BMP280;61664;48.112;11.662;2024-01-07T00:15:20;94614.63;;;5.38
34310;BMP280;61664;48.112;11.662;2024-01-07T00:17:47;94608.47;;;5.42
34310;BMP280;61664;48.112;11.662;2024-01-07T00:20:14;94611.88;;;5.42
34310;BMP280;61664;48.112;11.662;2024-01-07T00:22:41;94610.06;;;5.39
34310;BMP280;61664;48.112;11.662;2024-01-07T00:25:08;94612.44;;;5.46
34310;BMP280;61664;48.112;11.662;2024-01-07T00:27:35;94606.56;;;5.42
34310;BMP280;61664;48.112;11.662;2024-01-07T00:30:02;94611.88;;;5.42
34310;BMP280;61664;48.112;11.662;2024-01-07T00:32:29;94629.50;;;5.45
34310;BMP280;61664;48.112;11.662;2024-01-07T00:34:56;94620.81;;;5.45
34310;BMP280;61664;48.112;11.662;2024-01-07T00:37:23;94610.41;;;5.41
34310;BMP280;61664;48.112;11.662;2024-01-07T00:39:50;94609.78;;;5.46
34310;BMP280;61664;48.112;11.662;2024-01-07T00:42:17;94613.59;;;5.36
34310;BMP280;61664;48.112;11.662;2024-01-07T00:44:44;94611.53;;;5.40
34310;BMP280;61664;48.112;11.662;2024-01-07T00:47:11;94612.13;;;5.44
34310;BMP280;61664;48.112;11.662;2024-01-07T00:49:38;94610.69;;;5.43
34310;BMP280;61664;48.112;11.662;2024-01-07T00:52:06;94613.78;;;5.42
34310;BMP280;61664;48.112;11.662;2024-01-07T00:54:35;94611.53;;;5.40
34310;BMP280;61664;48.112;11.662;2024-01-07T00:57:03;94599.63;;;5.35
34310;BMP280;61664;48.112;11.662;2024-01-07T00:59:30;94607.25;;;5.33
34310;BMP280;61664;48.112;11.662;2024-01-07T01:01:57;94613.91;;;5.38
34310;BMP280;61664;48.112;11.662;2024-01-07T01:04:24;94595.34;;;5.38
34310;BMP280;61664;48.112;11.662;2024-01-07T01:06:51;94609.34;;;5.38
34310;BMP280;61664;48.112;11.662;2024-01-07T01:09:18;94615.75;;;5.28
34310;BMP280;61664;48.112;11.662;2024-01-07T01:11:45;94613.00;;;5.23
34310;BMP280;61664;48.112;11.662;2024-01-07T01:14:12;94619.03;;;5.23
34310;BMP280;61664;48.112;11.662;2024-01-07T01:16:39;94617.69;;;5.28
34310;BMP280;61664;48.112;11.662;2024-01-07T01:19:06;94621.97;;;5.34
34310;BMP280;61664;48.112;11.662;2024-01-07T01:21:33;94600.94;;;5.31
34310;BMP280;61664;48.112;11.662;2024-01-07T01:24:00;94617.72;;;5.37
34310;BMP280;61664;48.112;11.662;2024-01-07T01:26:27;94617.72;;;5.37
34310;BMP280;61664;48.112;11.662;2024-01-07T01:28:54;94619.81;;;5.42
34310;BMP280;61664;48.112;11.662;2024-01-07T01:31:21;94616.84;;;5.40
34310;BMP280;61664;48.112;11.662;2024-01-07T01:33:48;94619.94;;;5.38
34310;BMP280;61664;48.112;11.662;2024-01-07T01:36:15;94613.59;;;5.36
34310;BMP280;61664;48.112;11.662;2024-01-07T01:38:42;94612.69;;;5.30
34310;BMP280;61664;48.112;11.662;2024-01-07T01:41:09;94620.94;;;5.32
34310;BMP280;61664;48.112;11.662;2024-01-07T01:43:36;94616.06;;;5.30
34310;BMP280;61664;48.112;11.662;2024-01-07T01:46:03;94610.63;;;5.25
34310;BMP280;61664;48.112;11.662;2024-01-07T01:48:30;94614.75;;;5.26
34310;BMP280;61664;48.112;11.662;2024-01-07T01:50:57;94609.72;;;5.19
34310;BMP280;61664;48.112;11.662;2024-01-07T01:53:26;94607.38;;;5.21
34310;BMP280;61664;48.112;11.662;2024-01-07T01:55:57;94609.56;;;5.13
34310;BMP280;61664;48.112;11.662;2024-01-07T01:58:28;94592.00;;;4.97
34310;BMP280;61664;48.112;11.662;2024-01-07T02:00:56;94604.34;;;5.00
34310;BMP280;61664;48.112;11.662;2024-01-07T02:03:23;94606.41;;;4.96
34310;BMP280;61664;48.112;11.662;2024-01-07T02:05:52;94602.88;;;4.99
34310;BMP280;61664;48.112;11.662;2024-01-07T02:08:20;94601.59;;;5.04
34310;BMP280;61664;48.112;11.662;2024-01-07T02:10:47;94611.13;;;5.11
34310;BMP280;61664;48.112;11.662;2024-01-07T02:13:14;94598.50;;;5.05
34310;BMP280;61664;48.112;11.662;2024-01-07T02:15:41;94605.28;;;5.06
34310;BMP280;61664;48.112;11.662;2024-01-07T02:18:08;94603.81;;;5.05
34310;BMP280;61664;48.112;11.662;2024-01-07T02:20:35;94596.72;;;5.02
34310;BMP280;61664;48.112;11.662;2024-01-07T02:23:04;94599.09;;;5.10
34310;BMP280;61664;48.112;11.662;2024-01-07T02:25:37;94598.97;;;5.13
34310;BMP280;61664;48.112;11.662;2024-01-07T02:28:07;94604.59;;;5.24
34310;BMP280;61664;48.112;11.662;2024-01-07T02:30:34;94606.50;;;5.24
34310;BMP280;61664;48.112;11.662;2024-01-07T02:33:02;94602.25;;;5.26
34310;BMP280;61664;48.112;11.662;2024-01-07T02:35:30;94614.59;;;5.29
34310;BMP280;61664;48.112;11.662;2024-01-07T02:37:57;94618.16;;;5.26
34310;BMP280;61664;48.112;11.662;2024-01-07T02:40:24;94613.41;;;5.30
34310;BMP280;61664;48.112;11.662;2024-01-07T02:42:51;94612.84;;;5.26
34310;BMP280;61664;48.112;11.662;2024-01-07T02:45:18;94607.69;;;5.23
34310;BMP280;61664;48.112;11.662;2024-01-07T02:47:45;94613.28;;;5.25
34310;BMP280;61664;48.112;11.662;2024-01-07T02:53:00;94613.00;;;5.23
34310;BMP280;61664;48.112;11.662;2024-01-07T02:55:27;94600.28;;;5.18
34310;BMP280;61664;48.112;11.662;2024-01-07T02:57:54;94602.41;;;5.23
34310;BMP280;61664;48.112;11.662;2024-01-07T03:00:20;94601.50;;;5.26
34310;BMP280;61664;48.112;11.662;2024-01-07T03:02:47;94601.69;;;5.31
34310;BMP280;61664;48.112;11.662;2024-01-07T03:05:14;94597.41;;;5.34
34310;BMP280;61664;48.112;11.662;2024-01-07T03:07:41;94600.78;;;5.34
34310;BMP280;61664;48.112;11.662;2024-01-07T03:10:08;94596.69;;;5.33
34310;BMP280;61664;48.112;11.662;2024-01-07T03:12:36;94598.00;;;5.38
34310;BMP280;61664;48.112;11.662;2024-01-07T03:15:04;94590.06;;;5.38
34310;BMP280;61664;48.112;11.662;2024-01-07T03:17:31;94591.53;;;5.39
34310;BMP280;61664;48.112;11.662;2024-01-07T03:19:58;94601.81;;;5.37
34310;BMP280;61664;48.112;11.662;2024-01-07T03:22:25;94601.69;;;5.41
34310;BMP280;61664;48.112;11.662;2024-01-07T03:24:52;94603.31;;;5.38
34310;BMP280;61664;48.112;11.662;2024-01-07T03:27:19;94602.72;;;5.34
34310;BMP280;61664;48.112;11.662;2024-01-07T03:29:45;94608.00;;;5.34
34310;BMP280;61664;48.112;11.662;2024-01-07T03:32:12;94609.19;;;5.33
34310;BMP280;61664;48.112;11.662;2024-01-07T03:34:39;94602.53;;;5.28
34310;BMP280;61664;48.112;11.662;2024-01-07T03:39:34;94612.28;;;5.41
34310;BMP280;61664;48.112;11.662;2024-01-07T03:42:01;94614.53;;;5.42
34310;BMP280;61664;48.112;11.662;2024-01-07T03:44:28;94604.78;;;5.39
34310;BMP280;61664;48.112;11.662;2024-01-07T03:46:55;94616.25;;;5.45
34310;BMP280;61664;48.112;11.662;2024-01-07T03:49:22;94607.41;;;5.39
34310;BMP280;61664;48.112;11.662;2024-01-07T03:51:49;94621.53;;;5.36
34310;BMP280;61664;48.112;11.662;2024-01-07T03:54:16;94618.31;;;5.32
34310;BMP280;61664;48.112;11.662;2024-01-07T03:56:43;94609.72;;;5.28
34310;BMP280;61664;48.112;11.662;2024-01-07T03:59:10;94602.09;;;5.30
34310;BMP280;61664;48.112;11.662;2024-01-07T04:01:37;94613.03;;;5.41
34310;BMP280;61664;48.112;11.662;2024-01-07T04:04:04;94619.50;;;5.40
34310;BMP280;61664;48.112;11.662;2024-01-07T04:06:32;94614.63;;;5.38
34310;BMP280;61664;48.112;11.662;2024-01-07T04:08:58;94620.66;;;5.39
34310;BMP280;61664;48.112;11.662;2024-01-07T04:11:25;94621.84;;;5.38
34310;BMP280;61664;48.112;11.662;2024-01-07T04:13:52;94630.25;;;5.46
34310;BMP280;61664;48.112;11.662;2024-01-07T04:16:20;94622.88;;;5.50
34310;BMP280;61664;48.112;11.662;2024-01-07T04:18:47;94619.06;;;5.51
34310;BMP280;61664;48.112;11.662;2024-01-07T04:21:19;94620.97;;;5.50
34310;BMP280;61664;48.112;11.662;2024-01-07T04:23:46;94619.38;;;5.53
34310;BMP280;61664;48.112;11.662;2024-01-07T04:26:13;94623.31;;;5.48
34310;BMP280;61664;48.112;11.662;2024-01-07T04:28:44;94621.41;;;5.49
34310;BMP280;61664;48.112;11.662;2024-01-07T04:31:11;94624.22;;;5.45
34310;BMP280;61664;48.112;11.662;2024-01-07T04:33:38;94624.19;;;5.36
34310;BMP280;61664;48.112;11.662;2024-01-07T04:36:05;94625.97;;;5.39
34310;BMP280;61664;48.112;11.662;2024-01-07T04:38:32;94629.69;;;5.42
34310;BMP280;61664;48.112;11.662;2024-01-07T04:40:59;94646.31;;;5.51
34310;BMP280;61664;48.112;11.662;2024-01-07T04:43:26;94638.38;;;5.51
34310;BMP280;61664;48.112;11.662;2024-01-07T04:45:53;94640.25;;;5.51
34310;BMP280;61664;48.112;11.662;2024-01-07T04:48:20;94646.31;;;5.51
34310;BMP280;61664;48.112;11.662;2024-01-07T04:50:47;94644.84;;;5.59
34310;BMP280;61664;48.112;11.662;2024-01-07T04:53:17;94647.66;;;5.65
34310;BMP280;61664;48.112;11.662;2024-01-07T04:55:44;94634.84;;;5.63
34310;BMP280;61664;48.112;11.662;2024-01-07T04:58:11;94657.09;;;5.75
34310;BMP280;61664;48.112;11.662;2024-01-07T05:00:38;94657.09;;;5.75
34310;BMP280;61664;48.112;11.662;2024-01-07T05:03:05;94662.41;;;5.75
34310;BMP280;61664;48.112;11.662;2024-01-07T05:05:32;94661.06;;;5.70
34310;BMP280;61664;48.112;11.662;2024-01-07T05:07:59;94670.53;;;5.72
34310;BMP280;61664;48.112;11.662;2024-01-07T05:10:27;94667.88;;;5.72
34310;BMP280;61664;48.112;11.662;2024-01-07T05:12:54;94668.72;;;5.78
34310;BMP280;61664;48.112;11.662;2024-01-07T05:15:21;94677.41;;;5.78
34310;BMP280;61664;48.112;11.662;2024-01-07T05:17:51;94660.22;;;5.74
34310;BMP280;61664;48.112;11.662;2024-01-07T05:20:18;94660.66;;;5.72
34310;BMP280;61664;48.112;11.662;2024-01-07T05:22:45;94660.78;;;5.68
34310;BMP280;61664;48.112;11.662;2024-01-07T05:25:12;94656.78;;;5.64
34310;BMP280;61664;48.112;11.662;2024-01-07T05:27:40;94659.00;;;5.65
34310;BMP280;61664;48.112;11.662;2024-01-07T05:30:07;94664.59;;;5.67
34310;BMP280;61664;48.112;11.662;2024-01-07T05:32:34;94673.56;;;5.70
34310;BMP280;61664;48.112;11.662;2024-01-07T05:35:01;94669.91;;;5.67
34310;BMP280;61664;48.112;11.662;2024-01-07T05:37:28;94675.81;;;5.72
34310;BMP280;61664;48.112;11.662;2024-01-07T05:39:55;94670.19;;;5.69
34310;BMP280;61664;48.112;11.662;2024-01-07T05:42:22;94683.78;;;5.72
34310;BMP280;61664;48.112;11.662;2024-01-07T05:44:50;94670.63;;;5.68
34310;BMP280;61664;48.112;11.662;2024-01-07T05:47:16;94678.75;;;5.74
34310;BMP280;61664;48.112;11.662;2024-01-07T05:49:43;94672.28;;;5.75
34310;BMP280;61664;48.112;11.662;2024-01-07T05:52:10;94675.50;;;5.69
34310;BMP280;61664;48.112;11.662;2024-01-07T05:54:37;94678.00;;;5.64
34310;BMP280;61664;48.112;11.662;2024-01-07T05:57:04;94691.06;;;5.58
34310;BMP280;61664;48.112;11.662;2024-01-07T05:59:32;94683.81;;;5.50
34310;BMP280;61664;48.112;11.662;2024-01-07T06:01:59;94686.66;;;5.55
34310;BMP280;61664;48.112;11.662;2024-01-07T06:04:26;94693.72;;;5.58
34310;BMP280;61664;48.112;11.662;2024-01-07T06:06:53;94691.53;;;5.66
34310;BMP280;61664;48.112;11.662;2024-01-07T06:09:21;94701.25;;;5.69
34310;BMP280;61664;48.112;11.662;2024-01-07T06:11:48;94694.19;;;5.66
34310;BMP280;61664;48.112;11.662;2024-01-07T06:14:15;94702.63;;;5.74
34310;BMP280;61664;48.112;11.662;2024-01-07T06:16:42;94700.97;;;5.67
34310;BMP280;61664;48.112;11.662;2024-01-07T06:19:09;94700.53;;;5.68
34310;BMP280;61664;48.112;11.662;2024-01-07T06:21:36;94710.09;;;5.75
34310;BMP280;61664;48.112;11.662;2024-01-07T06:24:03;94705.09;;;5.77
34310;BMP280;61664;48.112;11.662;2024-01-07T06:26:31;94706.28;;;5.76
34310;BMP280;61664;48.112;11.662;2024-01-07T06:31:28;94703.34;;;5.74
34310;BMP280;61664;48.112;11.662;2024-01-07T06:33:55;94706.56;;;5.69
34310;BMP280;61664;48.112;11.662;2024-01-07T06:36:24;94707.28;;;5.69
34310;BMP280;61664;48.112;11.662;2024-01-07T06:38:51;94723.19;;;5.69
34310;BMP280;61664;48.112;11.662;2024-01-07T06:41:19;94719.38;;;5.70
34310;BMP280;61664;48.112;11.662;2024-01-07T06:43:46;94717.91;;;5.69
34310;BMP280;61664;48.112;11.662;2024-01-07T06:46:13;94722.03;;;5.70
34310;BMP280;61664;48.112;11.662;2024-01-07T06:48:40;94730.88;;;5.77
34310;BMP280;61664;48.112;11.662;2024-01-07T06:51:14;94720.56;;;5.79
34310;BMP280;61664;48.112;11.662;2024-01-07T06:53:42;94725.53;;;5.67
34310;BMP280;61664;48.112;11.662;2024-01-07T06:56:08;94731.03;;;5.73
34310;BMP280;61664;48.112;11.662;2024-01-07T06:58:35;94734.88;;;5.72
34310;BMP280;61664;48.112;11.662;2024-01-07T07:01:02;94736.78;;;5.72
34310;BMP280;61664;48.112;11.662;2024-01-07T07:03:30;94749.16;;;5.75
34310;BMP280;61664;48.112;11.662;2024-01-07T07:05:57;94739.53;;;5.68
34310;BMP280;61664;48.112;11.662;2024-01-07T07:08:24;94744.72;;;5.72
34310;BMP280;61664;48.112;11.662;2024-01-07T07:10:51;94755.63;;;5.74
34310;BMP280;61664;48.112;11.662;2024-01-07T07:13:18;94752.34;;;5.69
34310;BMP280;61664;48.112;11.662;2024-01-07T07:15:44;94751.94;;;5.71
34310;BMP280;61664;48.112;11.662;2024-01-07T07:18:11;94753.53;;;5.68
34310;BMP280;61664;48.112;11.662;2024-01-07T07:20:38;94761.66;;;5.74
34310;BMP280;61664;48.112;11.662;2024-01-07T07:23:05;94762.66;;;5.77
34310;BMP280;61664;48.112;11.662;2024-01-07T07:25:32;94767.53;;;5.78
34310;BMP280;61664;48.112;11.662;2024-01-07T07:27:59;94758.72;;;5.72
34310;BMP280;61664;48.112;11.662;2024-01-07T07:30:26;94771.22;;;5.81
34310;BMP280;61664;48.112;11.662;2024-01-07T07:32:53;94772.09;;;5.78
34310;BMP280;61664;48.112;11.662;2024-01-07T07:35:20;94773.00;;;5.75
34310;BMP280;61664;48.112;11.662;2024-01-07T07:37:47;94769.16;;;5.76
34310;BMP280;61664;48.112;11.662;2024-01-07T07:40:14;94774.75;;;5.78
34310;BMP280;61664;48.112;11.662;2024-01-07T07:42:41;94779.75;;;5.76
34310;BMP280;61664;48.112;11.662;2024-01-07T07:45:09;94774.75;;;5.78
34310;BMP280;61664;48.112;11.662;2024-01-07T07:47:36;94793.00;;;5.76
34310;BMP280;61664;48.112;11.662;2024-01-07T07:50:03;94795.41;;;5.83
34310;BMP280;61664;48.112;11.662;2024-01-07T07:52:30;94786.81;;;5.79
34310;BMP280;61664;48.112;11.662;2024-01-07T07:54:57;94789.47;;;5.79
34310;BMP280;61664;48.112;11.662;2024-01-07T07:57:25;94790.22;;;5.79
34310;BMP280;61664;48.112;11.662;2024-01-07T07:59:52;94801.31;;;5.87
34310;BMP280;61664;48.112;11.662;2024-01-07T08:02:20;94793.19;;;5.81
34310;BMP280;61664;48.112;11.662;2024-01-07T08:04:47;94808.34;;;5.81
34310;BMP280;61664;48.112;11.662;2024-01-07T08:07:14;94808.34;;;5.81
34310;BMP280;61664;48.112;11.662;2024-01-07T08:09:41;94817.91;;;5.78
34310;BMP280;61664;48.112;11.662;2024-01-07T08:12:08;94809.81;;;5.73
34310;BMP280;61664;48.112;11.662;2024-01-07T08:14:35;94807.91;;;5.73
34310;BMP280;61664;48.112;11.662;2024-01-07T08:17:02;94803.56;;;5.66
34310;BMP280;61664;48.112;11.662;2024-01-07T08:19:31;94821.09;;;5.64
34310;BMP280;61664;48.112;11.662;2024-01-07T08:21:58;94823.44;;;5.62
34310;BMP280;61664;48.112;11.662;2024-01-07T08:24:25;94831.69;;;5.64
34310;BMP280;61664;48.112;11.662;2024-01-07T08:26:52;94830.66;;;5.61
34310;BMP280;61664;48.112;11.662;2024-01-07T08:29:19;94833.66;;;5.73
34310;BMP280;61664;48.112;11.662;2024-01-07T08:31:46;94831.56;;;5.67
34310;BMP280;61664;48.112;11.662;2024-01-07T08:34:13;94827.72;;;5.68
34310;BMP280;61664;48.112;11.662;2024-01-07T08:36:42;94838.22;;;5.72
34310;BMP280;61664;48.112;11.662;2024-01-07T08:39:09;94841.28;;;5.70
34310;BMP280;61664;48.112;11.662;2024-01-07T08:41:35;94845.25;;;5.66
34310;BMP280;61664;48.112;11.662;2024-01-07T08:44:02;94838.13;;;5.54
34310;BMP280;61664;48.112;11.662;2024-01-07T08:46:29;94847.91;;;5.44
34310;BMP280;61664;48.112;11.662;2024-01-07T08:48:57;94856.16;;;5.46
34310;BMP280;61664;48.112;11.662;2024-01-07T08:51:24;94852.03;;;5.45
34310;BMP280;61664;48.112;11.662;2024-01-07T08:53:51;94854.69;;;5.45
34310;BMP280;61664;48.112;11.662;2024-01-07T08:56:18;94863.56;;;5.51
34310;BMP280;61664;48.112;11.662;2024-01-07T08:58:46;94863.13;;;5.53
34310;BMP280;61664;48.112;11.662;2024-01-07T09:01:13;94866.97;;;5.52
34310;BMP280;61664;48.112;11.662;2024-01-07T09:03:41;94878.59;;;5.54
34310;BMP280;61664;48.112;11.662;2024-01-07T09:06:09;94866.53;;;5.53
34310;BMP280;61664;48.112;11.662;2024-01-07T09:08:36;94875.69;;;5.61
34310;BMP280;61664;48.112;11.662;2024-01-07T09:11:06;94870.66;;;5.54
34310;BMP280;61664;48.112;11.662;2024-01-07T09:13:33;94885.81;;;5.54
34310;BMP280;61664;48.112;11.662;2024-01-07T09:16:00;94886.13;;;5.56
34310;BMP280;61664;48.112;11.662;2024-01-07T09:18:27;94890.38;;;5.53
34310;BMP280;61664;48.112;11.662;2024-01-07T09:20:55;94875.53;;;5.56
34310;BMP280;61664;48.112;11.662;2024-01-07T09:23:21;94893.81;;;5.63
34310;BMP280;61664;48.112;11.662;2024-01-07T09:25:48;94893.25;;;5.68
34310;BMP280;61664;48.112;11.662;2024-01-07T09:28:15;94895.47;;;5.69
34310;BMP280;61664;48.112;11.662;2024-01-07T09:30:43;94891.63;;;5.70
34310;BMP280;61664;48.112;11.662;2024-01-07T09:33:10;94887.94;;;5.68
34310;BMP280;61664;48.112;11.662;2024-01-07T09:35:37;94896.53;;;5.72
34310;BMP280;61664;48.112;11.662;2024-01-07T09:38:04;94895.06;;;5.71
34310;BMP280;61664;48.112;11.662;2024-01-07T09:40:31;94902.06;;;5.65
34310;BMP280;61664;48.112;11.662;2024-01-07T09:42:58;94896.63;;;5.68
34310;BMP280;61664;48.112;11.662;2024-01-07T09:45:28;94895.28;;;5.64
34310;BMP280;61664;48.112;11.662;2024-01-07T09:47:56;94897.63;;;5.62
34310;BMP280;61664;48.112;11.662;2024-01-07T09:52:56;94885.56;;;5.61
34310;BMP280;61664;48.112;11.662;2024-01-07T09:55:50;94892.06;;;5.69
34310;BMP280;61664;48.112;11.662;2024-01-07T09:58:19;94893.16;;;5.72
34310;BMP280;61664;48.112;11.662;2024-01-07T10:00:46;94900.81;;;5.79
34310;BMP280;61664;48.112;11.662;2024-01-07T10:03:14;94903.22;;;5.86
34310;BMP280;61664;48.112;11.662;2024-01-07T10:05:41;94900.56;;;5.86
34310;BMP280;61664;48.112;11.662;2024-01-07T10:08:08;94905.13;;;5.85
34310;BMP280;61664;48.112;11.662;2024-01-07T10:10:35;94895.84;;;5.90
34310;BMP280;61664;48.112;11.662;2024-01-07T10:13:03;94909.91;;;5.99
34310;BMP280;61664;48.112;11.662;2024-01-07T10:15:32;94898.88;;;6.01
34310;BMP280;61664;48.112;11.662;2024-01-07T10:18:06;94894.00;;;5.99
34310;BMP280;61664;48.112;11.662;2024-01-07T10:20:35;94891.34;;;5.99
34310;BMP280;61664;48.112;11.662;2024-01-07T10:23:05;94896.53;;;6.03
34310;BMP280;61664;48.112;11.662;2024-01-07T10:25:35;94890.63;;;6.08
34310;BMP280;61664;48.112;11.662;2024-01-07T10:28:04;94902.41;;;6.07
34310;BMP280;61664;48.112;11.662;2024-01-07T10:30:31;94913.31;;;6.09
34310;BMP280;61664;48.112;11.662;2024-01-07T10:32:59;94897.84;;;6.08
34310;BMP280;61664;48.112;11.662;2024-01-07T10:35:35;94894.75;;;6.09
34310;BMP280;61664;48.112;11.662;2024-01-07T10:38:03;94910.72;;;6.18
34310;BMP280;61664;48.112;11.662;2024-01-07T10:40:31;94914.28;;;6.24
34310;BMP280;61664;48.112;11.662;2024-01-07T10:43:00;94909.72;;;6.25
34310;BMP280;61664;48.112;11.662;2024-01-07T10:45:28;94919.34;;;6.31
34310;BMP280;61664;48.112;11.662;2024-01-07T10:48:04;94894.09;;;6.27
34310;BMP280;61664;48.112;11.662;2024-01-07T10:50:37;94905.75;;;6.29
34310;BMP280;61664;48.112;11.662;2024-01-07T10:53:09;94908.69;;;6.22
34310;BMP280;61664;48.112;11.662;2024-01-07T10:55:48;94894.47;;;6.07
34310;BMP280;61664;48.112;11.662;2024-01-07T10:58:21;94915.13;;;6.12
34310;BMP280;61664;48.112;11.662;2024-01-07T11:00:49;94890.63;;;6.08
34310;BMP280;61664;48.112;11.662;2024-01-07T11:03:48;94902.59;;;6.04
34310;BMP280;61664;48.112;11.662;2024-01-07T11:06:41;94906.50;;;5.99
34310;BMP280;61664;48.112;11.662;2024-01-07T11:09:26;94908.00;;;6.00
34310;BMP280;61664;48.112;11.662;2024-01-07T11:11:56;94915.94;;;6.00
34310;BMP280;61664;48.112;11.662;2024-01-07T11:17:04;94894.69;;;5.91
34310;BMP280;61664;48.112;11.662;2024-01-07T11:19:31;94913.88;;;5.95
34310;BMP280;61664;48.112;11.662;2024-01-07T11:22:21;94912.09;;;5.92
34310;BMP280;61664;48.112;11.662;2024-01-07T11:24:58;94905.31;;;5.91
34310;BMP280;61664;48.112;11.662;2024-01-07T11:27:29;94907.94;;;5.91
34310;BMP280;61664;48.112;11.662;2024-01-07T11:30:20;94904.41;;;5.85
34310;BMP280;61664;48.112;11.662;2024-01-07T11:32:47;94911.41;;;5.79
34310;BMP280;61664;48.112;11.662;2024-01-07T11:36:04;94909.06;;;5.81
34310;BMP280;61664;48.112;11.662;2024-01-07T11:38:31;94921.91;;;5.82
34310;BMP280;61664;48.112;11.662;2024-01-07T11:41:00;94900.69;;;5.82
34310;BMP280;61664;48.112;11.662;2024-01-07T11:43:27;94917.00;;;5.81
34310;BMP280;61664;48.112;11.662;2024-01-07T11:45:55;94914.38;;;5.81
34310;BMP280;61664;48.112;11.662;2024-01-07T11:48:22;94909.81;;;5.81
34310;BMP280;61664;48.112;11.662;2024-01-07T11:50:49;94924.88;;;5.84
34310;BMP280;61664;48.112;11.662;2024-01-07T11:53:21;94922.94;;;5.85
34310;BMP280;61664;48.112;11.662;2024-01-07T11:55:48;94921.94;;;5.91
34310;BMP280;61664;48.112;11.662;2024-01-07T11:58:16;94919.44;;;5.88
34310;BMP280;61664;48.112;11.662;2024-01-07T12:00:45;94923.56;;;5.89
34310;BMP280;61664;48.112;11.662;2024-01-07T12:03:12;94923.88;;;5.91
34310;BMP280;61664;48.112;11.662;2024-01-07T12:05:39;94929.16;;;5.91
34310;BMP280;61664;48.112;11.662;2024-01-07T12:08:10;94930.03;;;5.88
34310;BMP280;61664;48.112;11.662;2024-01-07T12:10:37;94921.47;;;5.84
34310;BMP280;61664;48.112;11.662;2024-01-07T12:13:05;94927.66;;;5.90
34310;BMP280;61664;48.112;11.662;2024-01-07T12:15:33;94932.38;;;5.86
34310;BMP280;61664;48.112;11.662;2024-01-07T12:18:00;94938.25;;;5.90
34310;BMP280;61664;48.112;11.662;2024-01-07T12:20:28;94939.47;;;5.89
34310;BMP280;61664;48.112;11.662;2024-01-07T12:22:57;94923.38;;;5.83
34310;BMP280;61664;48.112;11.662;2024-01-07T12:25:24;94939.16;;;5.87
34310;BMP280;61664;48.112;11.662;2024-01-07T12:27:51;94941.81;;;5.87
34310;BMP280;61664;48.112;11.662;2024-01-07T12:30:20;94941.81;;;5.87
34310;BMP280;61664;48.112;11.662;2024-01-07T12:32:51;94935.91;;;5.83
34310;BMP280;61664;48.112;11.662;2024-01-07T12:35:19;94935.84;;;5.74
34310;BMP280;61664;48.112;11.662;2024-01-07T12:40:35;94953.03;;;5.69
34310;BMP280;61664;48.112;11.662;2024-01-07T12:43:03;94954.19;;;5.68
34310;BMP280;61664;48.112;11.662;2024-01-07T12:45:31;94947.97;;;5.62
34310;BMP280;61664;48.112;11.662;2024-01-07T12:47:59;94949.78;;;5.65
34310;BMP280;61664;48.112;11.662;2024-01-07T12:50:29;94953.78;;;5.69
34310;BMP280;61664;48.112;11.662;2024-01-07T12:52:59;94950.81;;;5.67
34310;BMP280;61664;48.112;11.662;2024-01-07T12:55:26;94964.81;;;5.68
34310;BMP280;61664;48.112;11.662;2024-01-07T12:57:53;94964.94;;;5.64
34310;BMP280;61664;48.112;11.662;2024-01-07T13:00:22;94958.16;;;5.63
34310;BMP280;61664;48.112;11.662;2024-01-07T13:02:49;94967.88;;;5.66
34310;BMP280;61664;48.112;11.662;2024-01-07T13:05:16;94957.59;;;5.68
34310;BMP280;61664;48.112;11.662;2024-01-07T13:07:45;94967.34;;;5.72
34310;BMP280;61664;48.112;11.662;2024-01-07T13:10:13;94973.69;;;5.74
34310;BMP280;61664;48.112;11.662;2024-01-07T13:12:40;94967.03;;;5.69
34310;BMP280;61664;48.112;11.662;2024-01-07T13:15:16;94964.56;;;5.53
34310;BMP280;61664;48.112;11.662;2024-01-07T13:17:44;94974.84;;;5.51
34310;BMP280;61664;48.112;11.662;2024-01-07T13:20:11;94984.50;;;5.45
34310;BMP280;61664;48.112;11.662;2024-01-07T13:22:40;94973.91;;;5.45
34310;BMP280;61664;48.112;11.662;2024-01-07T13:25:07;94985.53;;;5.48
34310;BMP280;61664;48.112;11.662;2024-01-07T13:27:35;94997.94;;;5.51
34310;BMP280;61664;48.112;11.662;2024-01-07T13:30:05;94994.25;;;5.48
34310;BMP280;61664;48.112;11.662;2024-01-07T13:32:33;94992.75;;;5.47
34310;BMP280;61664;48.112;11.662;2024-01-07T13:35:06;94987.47;;;5.47
34310;BMP280;61664;48.112;11.662;2024-01-07T13:37:37;94993.19;;;5.46
34310;BMP280;61664;48.112;11.662;2024-01-07T13:40:05;94997.91;;;5.42
34310;BMP280;61664;48.112;11.662;2024-01-07T13:42:32;95000.31;;;5.36
34310;BMP280;61664;48.112;11.662;2024-01-07T13:45:00;95015.13;;;5.46
34310;BMP280;61664;48.112;11.662;2024-01-07T13:47:27;95003.75;;;5.24
34310;BMP280;61664;48.112;11.662;2024-01-07T13:49:54;95013.13;;;5.03
34310;BMP280;61664;48.112;11.662;2024-01-07T13:52:22;95008.97;;;4.89
34310;BMP280;61664;48.112;11.662;2024-01-07T13:54:49;95015.03;;;4.90
34310;BMP280;61664;48.112;11.662;2024-01-07T13:57:16;95020.31;;;4.90
34310;BMP280;61664;48.112;11.662;2024-01-07T13:59:43;95013.53;;;4.89
34310;BMP280;61664;48.112;11.662;2024-01-07T14:02:10;95020.44;;;4.86
34310;BMP280;61664;48.112;11.662;2024-01-07T14:04:37;95023.69;;;4.90
34310;BMP280;61664;48.112;11.662;2024-01-07T14:07:04;95022.66;;;4.88
34310;BMP280;61664;48.112;11.662;2024-01-07T14:09:31;95031.63;;;4.90
34310;BMP280;61664;48.112;11.662;2024-01-07T14:11:58;95036.81;;;4.94
34310;BMP280;61664;48.112;11.662;2024-01-07T14:14:26;95024.88;;;4.89
34310;BMP280;61664;48.112;11.662;2024-01-07T14:16:52;95025.53;;;4.93
34310;BMP280;61664;48.112;11.662;2024-01-07T14:19:19;95046.56;;;5.10
34310;BMP280;61664;48.112;11.662;2024-01-07T14:21:47;95044.84;;;5.16
34310;BMP280;61664;48.112;11.662;2024-01-07T14:24:16;95040.41;;;5.13
34310;BMP280;61664;48.112;11.662;2024-01-07T14:26:43;95055.88;;;5.14
34310;BMP280;61664;48.112;11.662;2024-01-07T14:29:10;95060.13;;;5.12